WetterOnline ( https://www.wetteronline.de )

Wetter aktuell Hungen

Aktuelles Wetter: Hoherodskopf/Vogelsberg (743m)

6-stündlich | Neueste Meldungen
Ortszeit Temperatur Wetter
Di, 22.06. 2:00 10.7° C leicht bewölkt
Mo, 21.06. 20:00 17.1° C fast wolkenlos
Mo, 21.06. 14:00 17.2° C leicht bewölkt
Mo, 21.06. 8:00 13.5° C Nebel
Mo, 21.06. 2:00 16.5° C leichter Regen
So, 20.06. 20:00 20.8° C wolkenlos
So, 20.06. 14:00 20.4° C wolkenlos
So, 20.06. 8:00 19.0° C fast wolkenlos
Ortszeit Temperatur Wetter
Di, 22.06. 4:30 9.8° C Nebel
Di, 22.06. 4:20 9.8° C Nebel
Di, 22.06. 4:10 9.8° C Nebel
Di, 22.06. 4:00 9.7° C Nebel
Di, 22.06. 3:50 9.7° C Nebel
Di, 22.06. 3:40 9.7° C Nebel
Di, 22.06. 3:30 9.8° C wolkig
Di, 22.06. 3:00 9.9° C bewölkt
Ortszeit Relative Feuchte Sichtweite
Di, 22.06. 2:00 98% 17 km
Mo, 21.06. 20:00 79% 60 km
Mo, 21.06. 14:00 77% 55 km
Mo, 21.06. 8:00 100% 100 m
Mo, 21.06. 2:00 89% 30 km
So, 20.06. 20:00 73% 40 km
So, 20.06. 14:00 71% 45 km
So, 20.06. 8:00 83% 40 km
Ortszeit Relative Feuchte Sichtweite
Di, 22.06. 4:30 100% 0.2 km
Di, 22.06. 4:20 100% -
Di, 22.06. 4:10 99% -
Di, 22.06. 4:00 100% 0.2 km
Di, 22.06. 3:50 100% -
Di, 22.06. 3:40 100% -
Di, 22.06. 3:30 99% 5.0 km
Di, 22.06. 3:00 99% 15 km
Ortszeit Niederschlagsmenge Niederschlagsart
Di, 22.06. 2:00 0.0 l/m2 in 6 Std. -
Mo, 21.06. 20:00 0.0 l/m2 in 12 Std. -
Mo, 21.06. 14:00 0.0 l/m2 in 6 Std. -
Mo, 21.06. 8:00 13 l/m2 in 12 Std. Regen
Mo, 21.06. 2:00 12 l/m2 in 6 Std. Regen
So, 20.06. 20:00 0.1 l/m2 in 12 Std. -
So, 20.06. 14:00 0.1 l/m2 in 6 Std. Regen
So, 20.06. 8:00 0.1 l/m2 in 12 Std. Regen
Ortszeit Niederschlagsmenge Niederschlagsart
Di, 22.06. 4:30 0.0 l/m2 in 1 Std. -
Di, 22.06. 4:20 keine Meldung -
Di, 22.06. 4:10 keine Meldung -
Di, 22.06. 4:00 0.0 l/m2 in 1 Std. -
Di, 22.06. 3:50 keine Meldung -
Di, 22.06. 3:40 keine Meldung -
Di, 22.06. 3:30 0.0 l/m2 in 1 Std. -
Di, 22.06. 3:00 0.0 l/m2 in 1 Std. -
Ortszeit Stärke Spitze Richtung
km/h Bft. km/h Grad Sektor
Di, 22.06. 2:00 22 4 40 30° NO
Mo, 21.06. 20:00 18 3 40 310° NW
Mo, 21.06. 14:00 28 4 43 210° SW
Mo, 21.06. 8:00 24 4 43 200° S
Mo, 21.06. 2:00 9 2 52 320° NW
So, 20.06. 20:00 7 2 29 100° O
So, 20.06. 14:00 15 3 37 190° S
So, 20.06. 8:00 19 3 46 240° SW
Ortszeit Stärke Spitze Richtung
km/h Bft. km/h Grad Sektor
Di, 22.06. 4:30 18 3 32 30° NO
Di, 22.06. 4:20 18 3 - 30° NO
Di, 22.06. 4:10 11 2 - 30° NO
Di, 22.06. 4:00 24 4 37 30° NO
Di, 22.06. 3:50 24 4 - 30° NO
Di, 22.06. 3:40 24 4 - 30° NO
Di, 22.06. 3:30 22 4 36 30° NO
Di, 22.06. 3:00 22 4 37 30° NO
Ortszeit Untergrenze Bedeckung Gattung
total tief tief mittel hoch
Di, 22.06. 2:00 <30 m 2/8 0/8 - - -
Mo, 21.06. 20:00 390 m 1/8 1/8 - - -
Mo, 21.06. 14:00 510 m 2/8 2/8 - - -
Mo, 21.06. 8:00 <30 m 8/8 0/8 - - -
Mo, 21.06. 2:00 30 m 8/8 8/8 - - -
So, 20.06. 20:00 - 0/8 0/8 - - -
So, 20.06. 14:00 - 0/8 0/8 - - -
So, 20.06. 8:00 210 m 0/8 0/8 - - -
Ortszeit Bedeckungsgrad in Achtel und Wolkenuntergrenze
Di, 22.06. 4:30 7(<30m)
Di, 22.06. 4:20 7(<30m)
Di, 22.06. 4:10 6(<30m)
Di, 22.06. 4:00 7(<30m)
Di, 22.06. 3:50 7(<30m)
Di, 22.06. 3:40 7(<30m)
Di, 22.06. 3:30 6(<30m)
Di, 22.06. 3:00 7(<30m)
Ortszeit Luftdruck NN (hPa) Tendenz (hPa in 3 Std.)
Di, 22.06. 2:00 1012 + 0,5
Mo, 21.06. 20:00 1009 + 0,4
Mo, 21.06. 14:00 1008 + 1,2
Mo, 21.06. 8:00 1007 0,0
Mo, 21.06. 2:00 1006 - 1,0
So, 20.06. 20:00 1007 - 1,0
So, 20.06. 14:00 1010 - 0,4
So, 20.06. 8:00 1010 + 1,2
Ortszeit Luftdruck NN (hPa) Tendenz (hPa in 3 Std.)
Di, 22.06. 4:30 1013 - 0,3
Di, 22.06. 4:20 1013 keine Meldung
Di, 22.06. 4:10 1013 keine Meldung
Di, 22.06. 4:00 1012 - 0,6
Di, 22.06. 3:50 1012 keine Meldung
Di, 22.06. 3:40 1012 keine Meldung
Di, 22.06. 3:30 1012 - 0,4
Di, 22.06. 3:00 1012 - 0,2
Ortszeit Schneehöhe (cm)
Di, 22.06. 2:00 -
Mo, 21.06. 20:00 -
Mo, 21.06. 14:00 -
Mo, 21.06. 8:00 -
Mo, 21.06. 2:00 -
So, 20.06. 20:00 -
So, 20.06. 14:00 -
So, 20.06. 8:00 -
Ortszeit Schneehöhe (cm)
Di, 22.06. 4:30 -
Di, 22.06. 4:20 -
Di, 22.06. 4:10 -
Di, 22.06. 4:00 -
Di, 22.06. 3:50 -
Di, 22.06. 3:40 -
Di, 22.06. 3:30 -
Di, 22.06. 3:00 -
Link zu dieser Seite / Seite empfehlen

Das Wetter in ...